createdAt,value
2022-11-28T00:00:09.131Z,13.55
2022-11-28T00:02:41.380Z,14.23
2022-11-28T00:05:12.958Z,14.15
2022-11-28T00:07:43.010Z,13.27
2022-11-28T00:10:12.969Z,14.52
2022-11-28T00:12:41.544Z,15.00
2022-11-28T00:15:13.245Z,14.77
2022-11-28T00:17:45.034Z,13.13
2022-11-28T00:20:14.626Z,14.80
2022-11-28T00:22:44.642Z,17.65
2022-11-28T00:25:13.481Z,14.82
2022-11-28T00:27:45.336Z,13.80
2022-11-28T00:30:19.831Z,13.48
2022-11-28T00:32:48.796Z,14.27
2022-11-28T00:35:17.687Z,15.10
2022-11-28T00:37:47.890Z,14.77
2022-11-28T00:40:17.213Z,14.02
2022-11-28T00:42:45.827Z,13.02
2022-11-28T00:45:14.666Z,13.40
2022-11-28T00:47:43.182Z,13.82
2022-11-28T00:50:12.069Z,17.63
2022-11-28T00:52:40.620Z,16.67
2022-11-28T00:55:10.981Z,18.90
2022-11-28T00:57:39.599Z,18.38
2022-11-28T01:00:10.379Z,14.75
2022-11-28T01:02:39.026Z,14.02
2022-11-28T01:05:08.652Z,13.38
2022-11-28T01:07:37.374Z,14.93
2022-11-28T01:10:07.387Z,13.30
2022-11-28T01:12:37.349Z,14.13
2022-11-28T01:15:07.026Z,14.25
2022-11-28T01:20:06.818Z,13.35
2022-11-28T01:22:35.445Z,15.90
2022-11-28T01:25:03.990Z,14.38
2022-11-28T01:27:32.530Z,14.15
2022-11-28T01:30:02.701Z,16.90
2022-11-28T01:32:31.431Z,15.60
2022-11-28T01:34:59.950Z,17.35
2022-11-28T01:37:30.810Z,17.17
2022-11-28T01:39:59.612Z,13.40
2022-11-28T01:42:28.110Z,13.30
2022-11-28T01:45:20.006Z,14.52
2022-11-28T01:47:49.399Z,13.77
2022-11-28T01:50:18.991Z,13.93
2022-11-28T01:52:51.475Z,12.77
2022-11-28T01:55:24.366Z,15.25
2022-11-28T01:57:56.363Z,14.18
2022-11-28T02:00:26.798Z,14.00
2022-11-28T02:03:01.956Z,13.10
2022-11-28T02:05:30.771Z,13.15
2022-11-28T02:07:59.330Z,13.98
2022-11-28T02:10:32.622Z,14.60
2022-11-28T02:13:19.186Z,14.10
2022-11-28T02:16:16.288Z,13.13
2022-11-28T02:18:58.542Z,12.95
2022-11-28T02:21:37.338Z,14.30
2022-11-28T02:24:45.781Z,14.63
2022-11-28T02:28:08.992Z,14.05
2022-11-28T02:30:48.069Z,13.65
2022-11-28T02:33:22.697Z,13.13
2022-11-28T02:35:59.092Z,13.57
2022-11-28T02:38:43.586Z,12.93
2022-11-28T02:41:20.110Z,13.07
2022-11-28T02:43:55.213Z,12.82
2022-11-28T02:46:30.298Z,12.82
2022-11-28T02:49:04.567Z,13.32
2022-11-28T02:51:38.177Z,12.95
2022-11-28T02:54:10.364Z,12.30
2022-11-28T02:56:39.109Z,13.45
2022-11-28T02:59:46.800Z,14.00
2022-11-28T03:02:19.889Z,12.02
2022-11-28T03:05:00.126Z,14.18
2022-11-28T03:07:42.306Z,13.35
2022-11-28T03:10:20.776Z,12.57
2022-11-28T03:12:59.185Z,13.25
2022-11-28T03:15:35.878Z,14.52
2022-11-28T03:18:11.705Z,14.52
2022-11-28T03:20:48.218Z,13.38
2022-11-28T03:23:19.789Z,12.82
2022-11-28T03:25:59.020Z,13.63
2022-11-28T03:28:38.178Z,13.50
2022-11-28T03:31:15.025Z,13.63
2022-11-28T03:33:48.613Z,11.57
2022-11-28T03:36:22.591Z,11.82
2022-11-28T03:38:57.669Z,11.88
2022-11-28T03:41:30.818Z,12.20
2022-11-28T03:44:01.929Z,12.88
2022-11-28T03:46:36.454Z,12.25
2022-11-28T03:49:09.525Z,11.32
2022-11-28T03:51:44.308Z,29.75
2022-11-28T03:54:17.595Z,34.20
2022-11-28T03:56:53.763Z,17.17
2022-11-28T03:59:27.789Z,21.20
2022-11-28T04:02:08.342Z,16.13
2022-11-28T04:04:50.439Z,16.27
2022-11-28T04:07:27.368Z,13.45
2022-11-28T04:10:03.930Z,17.25
2022-11-28T04:12:47.287Z,16.95
2022-11-28T04:15:21.995Z,13.43
2022-11-28T04:17:55.724Z,14.13
2022-11-28T04:20:31.737Z,13.43
2022-11-28T04:23:07.347Z,25.70
2022-11-28T04:25:39.434Z,20.58
2022-11-28T04:28:12.977Z,17.90
2022-11-28T04:30:45.268Z,15.60
2022-11-28T04:33:15.679Z,14.18
2022-11-28T04:35:50.509Z,13.13
2022-11-28T04:38:22.722Z,11.82
2022-11-28T04:40:54.904Z,13.07
2022-11-28T04:43:31.335Z,12.45
2022-11-28T04:46:05.869Z,11.85
2022-11-28T04:48:34.920Z,12.75
2022-11-28T04:51:15.501Z,12.20
2022-11-28T04:53:51.974Z,12.13
2022-11-28T04:56:25.098Z,11.93
2022-11-28T04:58:53.775Z,11.23
2022-11-28T05:01:26.840Z,11.13
2022-11-28T05:03:56.250Z,12.45
2022-11-28T05:06:29.544Z,12.43
2022-11-28T05:08:59.759Z,10.98
2022-11-28T05:11:29.108Z,11.32
2022-11-28T05:13:57.998Z,11.10
2022-11-28T05:16:26.772Z,11.20
2022-11-28T05:18:55.928Z,12.20
2022-11-28T05:21:24.631Z,11.20
2022-11-28T05:23:53.418Z,11.18
2022-11-28T05:26:23.960Z,12.07
2022-11-28T05:28:53.359Z,11.63
2022-11-28T05:31:22.811Z,10.57
2022-11-28T05:33:51.689Z,11.40
2022-11-28T05:36:20.294Z,11.75
2022-11-28T05:38:49.446Z,10.77
2022-11-28T05:41:24.249Z,11.00
2022-11-28T05:43:52.933Z,12.57
2022-11-28T05:46:21.910Z,13.75
2022-11-28T05:48:50.483Z,12.85
2022-11-28T05:51:21.222Z,12.25
2022-11-28T05:53:49.842Z,10.98
2022-11-28T05:56:20.717Z,11.35
2022-11-28T05:58:54.426Z,10.18
2022-11-28T06:01:25.168Z,9.90
2022-11-28T06:03:59.915Z,9.07
2022-11-28T06:06:30.481Z,9.70
2022-11-28T06:08:59.498Z,10.43
2022-11-28T06:11:30.415Z,9.93
2022-11-28T06:14:00.341Z,10.23
2022-11-28T06:16:30.884Z,9.95
2022-11-28T06:19:01.656Z,9.63
2022-11-28T06:21:31.438Z,10.15
2022-11-28T06:24:01.242Z,8.80
2022-11-28T06:29:00.085Z,11.38
2022-11-28T06:31:31.100Z,11.27
2022-11-28T06:34:00.095Z,11.38
2022-11-28T06:36:30.866Z,10.57
2022-11-28T06:38:59.605Z,11.55
2022-11-28T06:41:28.337Z,55.08
2022-11-28T06:43:57.535Z,46.55
2022-11-28T06:46:27.556Z,58.85
2022-11-28T06:48:56.322Z,63.47
2022-11-28T06:51:25.946Z,44.17
2022-11-28T06:53:55.948Z,46.78
2022-11-28T06:58:56.497Z,19.85
2022-11-28T07:01:28.209Z,14.32
2022-11-28T07:03:57.103Z,10.70
2022-11-28T07:06:27.524Z,10.03
2022-11-28T07:08:57.698Z,9.75
2022-11-28T07:11:28.098Z,11.00
2022-11-28T07:13:57.655Z,11.25
2022-11-28T07:16:29.299Z,10.07
2022-11-28T07:19:00.080Z,10.50
2022-11-28T07:21:29.917Z,10.35
2022-11-28T07:26:28.208Z,10.65
2022-11-28T07:28:58.394Z,11.63
2022-11-28T07:31:32.441Z,11.10
2022-11-28T07:34:04.386Z,11.65
2022-11-28T07:36:33.616Z,10.85
2022-11-28T07:39:05.571Z,11.73
2022-11-28T07:41:34.284Z,11.07
2022-11-28T07:44:04.183Z,11.18
2022-11-28T07:46:35.147Z,11.50
2022-11-28T07:49:06.043Z,11.15
2022-11-28T07:51:35.484Z,11.43
2022-11-28T07:54:04.928Z,12.75
2022-11-28T07:56:57.316Z,12.15
2022-11-28T07:59:23.953Z,19.23
2022-11-28T08:01:54.208Z,16.58
2022-11-28T08:04:23.176Z,14.15
2022-11-28T08:06:51.854Z,14.33
2022-11-28T08:09:20.612Z,13.70
2022-11-28T08:11:51.389Z,12.07
2022-11-28T08:14:19.918Z,11.70
2022-11-28T08:16:49.679Z,12.15
2022-11-28T08:21:53.603Z,12.23
2022-11-28T08:24:22.213Z,13.05
2022-11-28T08:26:50.784Z,12.00
2022-11-28T08:29:19.675Z,14.20
2022-11-28T08:31:48.721Z,14.10
2022-11-28T08:34:17.336Z,12.38
2022-11-28T08:36:49.149Z,12.13
2022-11-28T08:39:25.458Z,11.43
2022-11-28T08:41:57.341Z,12.82
2022-11-28T08:44:26.609Z,12.32
2022-11-28T08:46:55.423Z,12.77
2022-11-28T08:49:24.026Z,12.70
2022-11-28T08:51:53.954Z,12.82
2022-11-28T08:54:22.542Z,13.48
2022-11-28T08:56:51.112Z,12.15
2022-11-28T08:59:19.673Z,11.73
2022-11-28T09:01:48.275Z,12.60
2022-11-28T09:04:16.923Z,12.00
2022-11-28T09:06:45.454Z,11.90
2022-11-28T09:09:15.707Z,12.07
2022-11-28T09:11:44.742Z,12.75
2022-11-28T09:14:13.437Z,12.60
2022-11-28T09:16:42.751Z,12.73
2022-11-28T09:19:11.442Z,13.32
2022-11-28T09:21:40.744Z,12.02
2022-11-28T09:24:10.596Z,12.80
2022-11-28T09:29:09.038Z,11.82
2022-11-28T09:31:37.565Z,13.98
2022-11-28T09:34:06.055Z,14.48
2022-11-28T09:36:34.821Z,14.48
2022-11-28T09:39:04.856Z,12.90
2022-11-28T09:41:55.722Z,13.05
2022-11-28T09:44:27.849Z,13.93
2022-11-28T09:47:01.592Z,14.75
2022-11-28T09:49:41.106Z,13.52
2022-11-28T09:54:50.305Z,13.52
2022-11-28T09:57:27.602Z,13.38
2022-11-28T09:59:56.289Z,13.02
2022-11-28T10:02:32.088Z,13.80
2022-11-28T10:05:11.439Z,13.80
2022-11-28T10:07:54.673Z,13.00
2022-11-28T10:10:32.058Z,12.75
2022-11-28T10:13:05.004Z,12.70
2022-11-28T10:15:44.096Z,13.43
2022-11-28T10:18:27.422Z,12.93
2022-11-28T10:20:59.400Z,12.77
2022-11-28T10:23:31.574Z,12.30
2022-11-28T10:26:05.975Z,11.45
2022-11-28T10:28:40.014Z,12.05
2022-11-28T10:31:16.906Z,12.68
2022-11-28T10:33:49.943Z,12.32
2022-11-28T10:36:25.365Z,12.65
2022-11-28T10:38:54.343Z,13.07
2022-11-28T10:41:28.869Z,12.23
2022-11-28T10:44:04.511Z,11.80
2022-11-28T10:46:49.359Z,12.65
2022-11-28T10:49:43.594Z,12.77
2022-11-28T10:52:20.681Z,12.73
2022-11-28T10:55:12.790Z,13.15
2022-11-28T10:57:47.374Z,12.60
2022-11-28T11:00:19.629Z,13.38
2022-11-28T11:02:50.462Z,13.68
2022-11-28T11:05:21.956Z,12.13
2022-11-28T11:07:53.651Z,14.02
2022-11-28T11:10:27.158Z,14.10
2022-11-28T11:12:56.152Z,12.80
2022-11-28T11:15:32.627Z,13.07
2022-11-28T11:18:05.501Z,13.23
2022-11-28T11:20:37.549Z,13.90
2022-11-28T11:23:16.567Z,13.57
2022-11-28T11:25:52.307Z,13.40
2022-11-28T11:28:40.659Z,14.00
2022-11-28T11:31:24.710Z,13.75
2022-11-28T11:33:54.791Z,13.88
2022-11-28T11:36:29.322Z,14.32
2022-11-28T11:39:22.169Z,13.70
2022-11-28T11:41:52.101Z,14.35
2022-11-28T11:44:35.497Z,14.35
2022-11-28T11:47:07.898Z,13.05
2022-11-28T11:49:37.749Z,13.73
2022-11-28T11:54:35.483Z,13.13
2022-11-28T11:57:31.465Z,14.18
2022-11-28T11:59:57.161Z,12.07
2022-11-28T12:02:32.892Z,13.88
2022-11-28T12:05:06.709Z,11.63
2022-11-28T12:07:40.468Z,13.65
2022-11-28T12:10:16.489Z,13.55
2022-11-28T12:12:45.164Z,13.43
2022-11-28T12:15:18.396Z,11.90
2022-11-28T12:18:04.044Z,13.45
2022-11-28T12:20:43.183Z,12.30
2022-11-28T12:23:29.745Z,12.55
2022-11-28T12:26:04.894Z,12.23
2022-11-28T12:28:47.454Z,12.50
2022-11-28T12:31:22.935Z,12.95
2022-11-28T12:34:06.161Z,13.00
2022-11-28T12:36:38.673Z,13.25
2022-11-28T12:39:19.069Z,12.38
2022-11-28T12:42:19.885Z,13.10
2022-11-28T12:44:59.986Z,12.88
2022-11-28T12:47:41.629Z,13.02
2022-11-28T12:50:24.442Z,12.43
2022-11-28T12:53:03.690Z,13.23
2022-11-28T12:55:45.132Z,13.15
2022-11-28T12:58:22.160Z,12.98
2022-11-28T13:01:06.910Z,12.63
2022-11-28T13:03:43.936Z,12.73
2022-11-28T13:06:24.977Z,12.95
2022-11-28T13:09:16.735Z,14.00
2022-11-28T13:11:55.728Z,13.75
2022-11-28T13:14:38.044Z,13.33
2022-11-28T13:17:18.139Z,12.60
2022-11-28T13:19:53.455Z,12.77
2022-11-28T13:22:28.237Z,12.70
2022-11-28T13:25:01.947Z,12.95
2022-11-28T13:27:38.182Z,12.55
2022-11-28T13:30:21.103Z,13.07
2022-11-28T13:32:59.679Z,12.70
2022-11-28T13:35:29.894Z,12.10
2022-11-28T13:40:58.287Z,13.18
2022-11-28T13:43:33.294Z,11.35
2022-11-28T13:46:02.166Z,11.82
2022-11-28T13:51:45.574Z,12.23
2022-11-28T13:54:48.207Z,11.82
2022-11-28T13:57:28.179Z,12.05
2022-11-28T14:00:03.841Z,12.30
2022-11-28T14:02:46.155Z,11.82
2022-11-28T14:05:34.417Z,12.82
2022-11-28T14:08:04.416Z,12.57
2022-11-28T14:11:00.899Z,11.65
2022-11-28T14:13:45.088Z,12.10
2022-11-28T14:16:25.836Z,10.57
2022-11-28T14:19:23.938Z,12.00
2022-11-28T14:22:10.309Z,11.45
2022-11-28T14:24:50.996Z,11.57
2022-11-28T14:27:24.665Z,12.32
2022-11-28T14:29:57.205Z,12.20
2022-11-28T14:32:32.192Z,13.05
2022-11-28T14:35:02.173Z,11.75
2022-11-28T14:37:57.904Z,12.57
2022-11-28T14:41:06.459Z,12.68
2022-11-28T14:43:38.639Z,11.57
2022-11-28T14:46:30.162Z,12.15
2022-11-28T14:49:23.956Z,12.20
2022-11-28T14:52:38.598Z,11.60
2022-11-28T14:55:20.711Z,11.13
2022-11-28T14:57:59.283Z,11.20
2022-11-28T15:00:47.672Z,11.02
2022-11-28T15:03:27.163Z,11.05
2022-11-28T15:06:03.439Z,11.90
2022-11-28T15:08:54.409Z,11.02
2022-11-28T15:11:59.003Z,11.57
2022-11-28T15:14:31.753Z,12.13
2022-11-28T15:17:06.323Z,12.02
2022-11-28T15:19:39.308Z,13.02
2022-11-28T15:22:31.010Z,12.25
2022-11-28T15:25:01.091Z,11.68
2022-11-28T15:27:30.161Z,11.48
2022-11-28T15:30:04.454Z,12.55
2022-11-28T15:32:35.584Z,10.77
2022-11-28T15:35:12.280Z,13.38
2022-11-28T15:37:49.041Z,11.63
2022-11-28T15:40:22.950Z,12.60
2022-11-28T15:42:52.155Z,12.93
2022-11-28T15:45:26.413Z,12.68
2022-11-28T15:47:58.044Z,12.40
2022-11-28T15:50:29.977Z,11.88
2022-11-28T15:53:00.383Z,13.40
2022-11-28T15:55:33.057Z,12.02
2022-11-28T15:58:21.091Z,12.20
2022-11-28T16:01:00.237Z,12.00
2022-11-28T16:03:34.927Z,12.45
2022-11-28T16:06:05.933Z,11.85
2022-11-28T16:08:37.894Z,12.45
2022-11-28T16:11:08.969Z,11.98
2022-11-28T16:13:40.541Z,11.93
2022-11-28T16:16:13.995Z,12.93
2022-11-28T16:18:48.072Z,11.90
2022-11-28T16:21:17.265Z,16.52
2022-11-28T16:23:45.819Z,13.82
2022-11-28T16:26:30.050Z,16.98
2022-11-28T16:29:03.709Z,15.25
2022-11-28T16:31:32.516Z,12.75
2022-11-28T16:34:03.951Z,13.80
2022-11-28T16:36:36.907Z,13.63
2022-11-28T16:39:09.168Z,14.02
2022-11-28T16:41:38.684Z,14.13
2022-11-28T16:44:12.394Z,13.48
2022-11-28T16:46:42.644Z,12.07
2022-11-28T16:49:34.628Z,16.35
2022-11-28T16:52:42.456Z,13.10
2022-11-28T16:55:41.735Z,12.10
2022-11-28T16:58:13.811Z,13.38
2022-11-28T17:00:45.399Z,12.70
2022-11-28T17:03:48.728Z,12.80
2022-11-28T17:06:25.202Z,12.48
2022-11-28T17:08:54.833Z,12.75
2022-11-28T17:11:28.005Z,11.40
2022-11-28T17:13:57.865Z,14.10
2022-11-28T17:16:28.431Z,12.23
2022-11-28T17:21:33.225Z,13.23
2022-11-28T17:24:02.705Z,16.38
2022-11-28T17:26:31.863Z,13.18
2022-11-28T17:29:00.771Z,14.40
2022-11-28T17:31:30.614Z,13.00
2022-11-28T17:36:29.067Z,11.55
2022-11-28T17:39:02.296Z,12.52
2022-11-28T17:41:33.822Z,12.93
2022-11-28T17:44:02.929Z,13.07
2022-11-28T17:46:32.896Z,12.20
2022-11-28T17:49:01.532Z,16.93
2022-11-28T17:51:31.532Z,13.80
2022-11-28T17:54:00.080Z,14.38
2022-11-28T17:56:28.898Z,20.92
2022-11-28T17:58:57.389Z,16.50
2022-11-28T18:01:29.918Z,15.40
2022-11-28T18:04:01.139Z,37.83
2022-11-28T18:06:31.625Z,48.08
2022-11-28T18:09:01.528Z,42.35
2022-11-28T18:11:30.868Z,33.20
2022-11-28T18:13:59.841Z,26.27
2022-11-28T18:16:33.004Z,29.05
2022-11-28T18:19:02.031Z,18.98
2022-11-28T18:21:32.114Z,20.70
2022-11-28T18:24:00.945Z,16.17
2022-11-28T18:26:29.712Z,14.10
2022-11-28T18:29:00.492Z,16.02
2022-11-28T18:31:31.038Z,16.00
2022-11-28T18:34:05.078Z,15.43
2022-11-28T18:36:38.962Z,14.93
2022-11-28T18:39:10.189Z,16.05
2022-11-28T18:41:39.973Z,15.40
2022-11-28T18:44:11.064Z,15.45
2022-11-28T18:46:40.533Z,21.88
2022-11-28T18:49:09.211Z,20.67
2022-11-28T18:51:40.593Z,18.27
2022-11-28T18:54:12.450Z,14.95
2022-11-28T18:56:43.811Z,17.50
2022-11-28T18:59:13.686Z,14.60
2022-11-28T19:01:42.468Z,15.85
2022-11-28T19:04:15.640Z,14.90
2022-11-28T19:06:48.546Z,14.32
2022-11-28T19:09:18.739Z,13.80
2022-11-28T19:11:47.327Z,18.52
2022-11-28T19:14:17.577Z,18.02
2022-11-28T19:16:48.546Z,13.70
2022-11-28T19:19:18.712Z,13.27
2022-11-28T19:21:51.403Z,13.75
2022-11-28T19:24:20.005Z,13.23
2022-11-28T19:26:48.745Z,12.60
2022-11-28T19:29:17.751Z,14.93
2022-11-28T19:31:46.402Z,16.15
2022-11-28T19:34:17.428Z,25.17
2022-11-28T19:36:49.222Z,17.90
2022-11-28T19:39:22.252Z,14.20
2022-11-28T19:41:52.140Z,13.73
2022-11-28T19:44:24.018Z,13.07
2022-11-28T19:46:53.591Z,13.13
2022-11-28T19:49:24.013Z,12.85
2022-11-28T19:51:54.448Z,12.38
2022-11-28T19:54:24.475Z,12.75
2022-11-28T19:56:56.042Z,12.40
2022-11-28T19:59:24.943Z,12.43
2022-11-28T20:01:53.977Z,11.75
2022-11-28T20:04:23.821Z,13.60
2022-11-28T20:06:52.418Z,12.50
2022-11-28T20:09:21.029Z,11.73
2022-11-28T20:11:51.153Z,18.95
2022-11-28T20:14:20.894Z,13.40
2022-11-28T20:19:18.462Z,11.45
2022-11-28T20:21:47.461Z,15.73
2022-11-28T20:24:16.810Z,11.82
2022-11-28T20:26:47.457Z,11.90
2022-11-28T20:29:19.138Z,11.65
2022-11-28T20:31:50.161Z,12.30
2022-11-28T20:34:20.113Z,11.68
2022-11-28T20:36:56.509Z,12.63
2022-11-28T20:39:25.325Z,11.27
2022-11-28T20:41:53.829Z,13.00
2022-11-28T20:44:24.066Z,12.63
2022-11-28T20:46:52.747Z,13.10
2022-11-28T20:49:21.521Z,14.57
2022-11-28T20:51:50.474Z,12.63
2022-11-28T20:54:19.476Z,11.98
2022-11-28T20:59:38.135Z,11.75
2022-11-28T21:02:06.780Z,13.70
2022-11-28T21:04:35.367Z,11.63
2022-11-28T21:07:03.897Z,11.50
2022-11-28T21:09:32.517Z,13.15
2022-11-28T21:12:01.986Z,12.18
2022-11-28T21:14:30.665Z,11.27
2022-11-28T21:17:01.438Z,13.75
2022-11-28T21:19:30.050Z,10.48
2022-11-28T21:21:58.510Z,10.90
2022-11-28T21:24:28.583Z,10.65
2022-11-28T21:26:57.123Z,10.65
2022-11-28T21:29:26.278Z,9.65
2022-11-28T21:31:55.321Z,11.50
2022-11-28T21:34:25.296Z,10.13
2022-11-28T21:36:55.370Z,10.20
2022-11-28T21:39:24.015Z,10.98
2022-11-28T21:41:52.703Z,9.93
2022-11-28T21:44:21.316Z,10.30
2022-11-28T21:46:50.896Z,10.80
2022-11-28T21:49:19.669Z,10.48
2022-11-28T21:51:50.042Z,10.23
2022-11-28T21:54:18.624Z,10.52
2022-11-28T21:56:47.317Z,9.95
2022-11-28T21:59:16.615Z,10.57
2022-11-28T22:01:46.160Z,10.25
2022-11-28T22:04:14.718Z,10.32
2022-11-28T22:06:43.642Z,9.05
2022-11-28T22:09:13.541Z,11.35
2022-11-28T22:11:42.228Z,11.73
2022-11-28T22:14:10.864Z,9.97
2022-11-28T22:16:39.782Z,11.20
2022-11-28T22:19:08.515Z,10.73
2022-11-28T22:21:54.767Z,10.52
2022-11-28T22:24:26.161Z,10.65
2022-11-28T22:26:56.868Z,10.13
2022-11-28T22:29:25.911Z,11.07
2022-11-28T22:31:55.639Z,12.90
2022-11-28T22:34:25.087Z,16.52
2022-11-28T22:36:53.967Z,12.10
2022-11-28T22:39:23.577Z,16.20
2022-11-28T22:41:53.694Z,11.63
2022-11-28T22:44:22.550Z,11.10
2022-11-28T22:46:51.430Z,11.48
2022-11-28T22:49:20.567Z,15.32
2022-11-28T22:51:49.333Z,16.47
2022-11-28T22:54:18.540Z,12.80
2022-11-28T22:56:47.264Z,13.07
2022-11-28T22:59:18.145Z,12.85
2022-11-28T23:01:46.869Z,11.43
2022-11-28T23:04:16.298Z,12.60
2022-11-28T23:06:45.359Z,11.38
2022-11-28T23:09:15.692Z,11.23
2022-11-28T23:11:46.412Z,10.73
2022-11-28T23:16:46.735Z,12.02
2022-11-28T23:19:17.567Z,10.35
2022-11-28T23:21:48.563Z,11.73
2022-11-28T23:24:19.126Z,10.23
2022-11-28T23:26:48.919Z,11.73
2022-11-28T23:29:20.370Z,12.68
2022-11-28T23:31:50.868Z,12.00
2022-11-28T23:34:19.689Z,11.00
2022-11-28T23:39:19.359Z,10.40
2022-11-28T23:41:48.804Z,10.18
2022-11-28T23:44:20.219Z,10.82
2022-11-28T23:46:49.531Z,9.95
2022-11-28T23:49:18.531Z,10.63
2022-11-28T23:51:47.319Z,10.73
2022-11-28T23:54:16.794Z,10.50
2022-11-28T23:59:17.237Z,10.45
